sensor_id;sensor_type;location;lat;lon;timestamp;P1;durP1;ratioP1;P2;durP2;ratioP2
26253;SDS011;53339;51.378;0.094;2023-11-22T00:01:25;5.65;;;2.03;;
26253;SDS011;53339;51.378;0.094;2023-11-22T00:03:53;5.13;;;2.33;;
26253;SDS011;53339;51.378;0.094;2023-11-22T00:06:21;5.68;;;2.13;;
26253;SDS011;53339;51.378;0.094;2023-11-22T00:08:49;4.70;;;2.15;;
26253;SDS011;53339;51.378;0.094;2023-11-22T00:11:17;9.25;;;2.55;;
26253;SDS011;53339;51.378;0.094;2023-11-22T00:13:45;6.20;;;3.38;;
26253;SDS011;53339;51.378;0.094;2023-11-22T00:16:12;8.65;;;3.08;;
26253;SDS011;53339;51.378;0.094;2023-11-22T00:18:40;6.68;;;2.47;;
26253;SDS011;53339;51.378;0.094;2023-11-22T00:21:10;5.68;;;2.47;;
26253;SDS011;53339;51.378;0.094;2023-11-22T00:23:38;4.75;;;2.60;;
26253;SDS011;53339;51.378;0.094;2023-11-22T00:26:06;6.85;;;2.30;;
26253;SDS011;53339;51.378;0.094;2023-11-22T00:28:36;6.00;;;2.58;;
26253;SDS011;53339;51.378;0.094;2023-11-22T00:31:03;6.03;;;2.38;;
26253;SDS011;53339;51.378;0.094;2023-11-22T00:33:31;6.47;;;3.30;;
26253;SDS011;53339;51.378;0.094;2023-11-22T00:35:59;2.70;;;1.98;;
26253;SDS011;53339;51.378;0.094;2023-11-22T00:38:27;6.95;;;3.47;;
26253;SDS011;53339;51.378;0.094;2023-11-22T00:40:54;6.65;;;2.75;;
26253;SDS011;53339;51.378;0.094;2023-11-22T00:43:23;4.80;;;3.15;;
26253;SDS011;53339;51.378;0.094;2023-11-22T00:45:52;7.75;;;3.72;;
26253;SDS011;53339;51.378;0.094;2023-11-22T00:48:20;4.95;;;3.30;;
26253;SDS011;53339;51.378;0.094;2023-11-22T00:50:48;6.07;;;2.67;;
26253;SDS011;53339;51.378;0.094;2023-11-22T00:53:16;4.70;;;3.30;;
26253;SDS011;53339;51.378;0.094;2023-11-22T00:55:44;7.95;;;3.35;;
26253;SDS011;53339;51.378;0.094;2023-11-22T00:58:11;7.68;;;2.85;;
26253;SDS011;53339;51.378;0.094;2023-11-22T01:00:39;5.25;;;2.60;;
26253;SDS011;53339;51.378;0.094;2023-11-22T01:03:07;6.68;;;3.47;;
26253;SDS011;53339;51.378;0.094;2023-11-22T01:05:40;4.22;;;2.60;;
26253;SDS011;53339;51.378;0.094;2023-11-22T01:08:09;4.60;;;3.00;;
26253;SDS011;53339;51.378;0.094;2023-11-22T01:10:37;4.57;;;2.63;;
26253;SDS011;53339;51.378;0.094;2023-11-22T01:13:05;6.93;;;3.03;;
26253;SDS011;53339;51.378;0.094;2023-11-22T01:15:33;5.53;;;2.58;;
26253;SDS011;53339;51.378;0.094;2023-11-22T01:18:03;5.78;;;1.92;;
26253;SDS011;53339;51.378;0.094;2023-11-22T01:20:31;5.47;;;3.65;;
26253;SDS011;53339;51.378;0.094;2023-11-22T01:22:58;6.57;;;3.40;;
26253;SDS011;53339;51.378;0.094;2023-11-22T01:25:26;4.00;;;2.17;;
26253;SDS011;53339;51.378;0.094;2023-11-22T01:27:55;6.13;;;3.22;;
26253;SDS011;53339;51.378;0.094;2023-11-22T01:30:23;6.97;;;3.42;;
26253;SDS011;53339;51.378;0.094;2023-11-22T01:32:55;7.68;;;2.42;;
26253;SDS011;53339;51.378;0.094;2023-11-22T01:35:23;7.28;;;3.55;;
26253;SDS011;53339;51.378;0.094;2023-11-22T01:37:51;5.50;;;1.95;;
26253;SDS011;53339;51.378;0.094;2023-11-22T01:40:18;4.57;;;2.60;;
26253;SDS011;53339;51.378;0.094;2023-11-22T01:42:46;6.45;;;2.65;;
26253;SDS011;53339;51.378;0.094;2023-11-22T01:45:14;4.60;;;2.85;;
26253;SDS011;53339;51.378;0.094;2023-11-22T01:47:42;7.55;;;2.30;;
26253;SDS011;53339;51.378;0.094;2023-11-22T01:50:10;7.45;;;3.15;;
26253;SDS011;53339;51.378;0.094;2023-11-22T01:52:39;8.32;;;2.65;;
26253;SDS011;53339;51.378;0.094;2023-11-22T01:55:07;4.85;;;2.45;;
26253;SDS011;53339;51.378;0.094;2023-11-22T01:57:36;4.07;;;2.35;;
26253;SDS011;53339;51.378;0.094;2023-11-22T02:00:06;7.68;;;2.38;;
26253;SDS011;53339;51.378;0.094;2023-11-22T02:05:10;4.95;;;2.92;;
26253;SDS011;53339;51.378;0.094;2023-11-22T02:07:39;7.38;;;2.92;;
26253;SDS011;53339;51.378;0.094;2023-11-22T02:10:10;6.10;;;2.53;;
26253;SDS011;53339;51.378;0.094;2023-11-22T02:12:37;6.13;;;2.65;;
26253;SDS011;53339;51.378;0.094;2023-11-22T02:15:06;3.85;;;2.63;;
26253;SDS011;53339;51.378;0.094;2023-11-22T02:17:34;9.70;;;3.10;;
26253;SDS011;53339;51.378;0.094;2023-11-22T02:20:03;8.30;;;3.13;;
26253;SDS011;53339;51.378;0.094;2023-11-22T02:22:42;5.75;;;3.20;;
26253;SDS011;53339;51.378;0.094;2023-11-22T02:25:11;6.05;;;1.90;;
26253;SDS011;53339;51.378;0.094;2023-11-22T02:27:39;6.35;;;3.17;;
26253;SDS011;53339;51.378;0.094;2023-11-22T02:30:07;9.30;;;2.33;;
26253;SDS011;53339;51.378;0.094;2023-11-22T02:32:35;7.25;;;3.13;;
26253;SDS011;53339;51.378;0.094;2023-11-22T02:35:03;5.07;;;2.80;;
26253;SDS011;53339;51.378;0.094;2023-11-22T02:37:34;5.53;;;4.25;;
26253;SDS011;53339;51.378;0.094;2023-11-22T02:40:08;5.85;;;3.10;;
26253;SDS011;53339;51.378;0.094;2023-11-22T02:42:48;9.10;;;3.35;;
26253;SDS011;53339;51.378;0.094;2023-11-22T02:45:17;3.67;;;3.05;;
26253;SDS011;53339;51.378;0.094;2023-11-22T02:47:47;4.75;;;2.65;;
26253;SDS011;53339;51.378;0.094;2023-11-22T02:50:14;5.10;;;2.67;;
26253;SDS011;53339;51.378;0.094;2023-11-22T02:52:42;6.85;;;2.42;;
26253;SDS011;53339;51.378;0.094;2023-11-22T02:55:10;4.43;;;2.40;;
26253;SDS011;53339;51.378;0.094;2023-11-22T02:57:38;4.00;;;2.22;;
26253;SDS011;53339;51.378;0.094;2023-11-22T03:00:09;5.78;;;2.55;;
26253;SDS011;53339;51.378;0.094;2023-11-22T03:02:41;3.92;;;2.38;;
26253;SDS011;53339;51.378;0.094;2023-11-22T03:05:10;5.05;;;2.60;;
26253;SDS011;53339;51.378;0.094;2023-11-22T03:07:40;4.03;;;2.28;;
26253;SDS011;53339;51.378;0.094;2023-11-22T03:10:08;6.18;;;3.08;;
26253;SDS011;53339;51.378;0.094;2023-11-22T03:12:37;8.50;;;4.00;;
26253;SDS011;53339;51.378;0.094;2023-11-22T03:15:05;4.57;;;1.85;;
26253;SDS011;53339;51.378;0.094;2023-11-22T03:17:33;5.07;;;2.58;;
26253;SDS011;53339;51.378;0.094;2023-11-22T03:20:02;10.63;;;3.65;;
26253;SDS011;53339;51.378;0.094;2023-11-22T03:22:30;6.60;;;3.03;;
26253;SDS011;53339;51.378;0.094;2023-11-22T03:25:01;5.03;;;2.17;;
26253;SDS011;53339;51.378;0.094;2023-11-22T03:27:32;8.27;;;2.60;;
26253;SDS011;53339;51.378;0.094;2023-11-22T03:30:00;11.15;;;3.55;;
26253;SDS011;53339;51.378;0.094;2023-11-22T03:32:28;7.05;;;2.63;;
26253;SDS011;53339;51.378;0.094;2023-11-22T03:34:56;7.07;;;2.72;;
26253;SDS011;53339;51.378;0.094;2023-11-22T03:37:24;5.75;;;3.67;;
26253;SDS011;53339;51.378;0.094;2023-11-22T03:39:52;7.07;;;3.22;;
26253;SDS011;53339;51.378;0.094;2023-11-22T03:42:20;7.35;;;3.30;;
26253;SDS011;53339;51.378;0.094;2023-11-22T03:44:48;6.15;;;4.05;;
26253;SDS011;53339;51.378;0.094;2023-11-22T03:47:16;4.20;;;3.08;;
26253;SDS011;53339;51.378;0.094;2023-11-22T03:49:46;5.57;;;3.28;;
26253;SDS011;53339;51.378;0.094;2023-11-22T03:52:13;6.65;;;2.50;;
26253;SDS011;53339;51.378;0.094;2023-11-22T03:54:41;6.70;;;3.03;;
26253;SDS011;53339;51.378;0.094;2023-11-22T03:57:09;4.88;;;2.42;;
26253;SDS011;53339;51.378;0.094;2023-11-22T03:59:36;12.85;;;2.50;;
26253;SDS011;53339;51.378;0.094;2023-11-22T04:02:04;5.45;;;2.75;;
26253;SDS011;53339;51.378;0.094;2023-11-22T04:04:32;5.50;;;2.50;;
26253;SDS011;53339;51.378;0.094;2023-11-22T04:07:00;6.32;;;2.58;;
26253;SDS011;53339;51.378;0.094;2023-11-22T04:09:28;5.68;;;2.03;;
26253;SDS011;53339;51.378;0.094;2023-11-22T04:11:56;4.47;;;2.47;;
26253;SDS011;53339;51.378;0.094;2023-11-22T04:14:24;6.97;;;2.65;;
26253;SDS011;53339;51.378;0.094;2023-11-22T04:16:54;6.30;;;3.67;;
26253;SDS011;53339;51.378;0.094;2023-11-22T04:19:22;4.88;;;2.85;;
26253;SDS011;53339;51.378;0.094;2023-11-22T04:21:50;6.72;;;3.45;;
26253;SDS011;53339;51.378;0.094;2023-11-22T04:24:17;8.27;;;3.10;;
26253;SDS011;53339;51.378;0.094;2023-11-22T04:26:45;5.10;;;3.47;;
26253;SDS011;53339;51.378;0.094;2023-11-22T04:29:14;4.20;;;2.58;;
26253;SDS011;53339;51.378;0.094;2023-11-22T04:31:43;5.45;;;3.83;;
26253;SDS011;53339;51.378;0.094;2023-11-22T04:34:11;9.38;;;4.28;;
26253;SDS011;53339;51.378;0.094;2023-11-22T04:36:39;10.70;;;3.55;;
26253;SDS011;53339;51.378;0.094;2023-11-22T04:39:06;11.32;;;3.72;;
26253;SDS011;53339;51.378;0.094;2023-11-22T04:41:34;7.30;;;3.72;;
26253;SDS011;53339;51.378;0.094;2023-11-22T04:44:02;6.47;;;3.88;;
26253;SDS011;53339;51.378;0.094;2023-11-22T04:46:30;11.50;;;4.88;;
26253;SDS011;53339;51.378;0.094;2023-11-22T04:48:58;6.57;;;3.05;;
26253;SDS011;53339;51.378;0.094;2023-11-22T04:51:26;6.85;;;3.05;;
26253;SDS011;53339;51.378;0.094;2023-11-22T04:53:56;8.38;;;2.80;;
26253;SDS011;53339;51.378;0.094;2023-11-22T04:56:24;7.95;;;3.88;;
26253;SDS011;53339;51.378;0.094;2023-11-22T04:58:51;6.82;;;3.25;;
26253;SDS011;53339;51.378;0.094;2023-11-22T05:01:19;4.65;;;3.33;;
26253;SDS011;53339;51.378;0.094;2023-11-22T05:03:48;6.03;;;2.92;;
26253;SDS011;53339;51.378;0.094;2023-11-22T05:06:16;8.05;;;3.45;;
26253;SDS011;53339;51.378;0.094;2023-11-22T05:08:44;4.50;;;3.25;;
26253;SDS011;53339;51.378;0.094;2023-11-22T05:11:11;4.18;;;2.92;;
26253;SDS011;53339;51.378;0.094;2023-11-22T05:13:39;7.43;;;2.78;;
26253;SDS011;53339;51.378;0.094;2023-11-22T05:16:07;7.05;;;3.17;;
26253;SDS011;53339;51.378;0.094;2023-11-22T05:18:35;7.38;;;3.30;;
26253;SDS011;53339;51.378;0.094;2023-11-22T05:21:03;8.35;;;3.83;;
26253;SDS011;53339;51.378;0.094;2023-11-22T05:23:31;6.97;;;2.80;;
26253;SDS011;53339;51.378;0.094;2023-11-22T05:26:01;8.60;;;3.90;;
26253;SDS011;53339;51.378;0.094;2023-11-22T05:28:29;6.18;;;2.95;;
26253;SDS011;53339;51.378;0.094;2023-11-22T05:30:57;11.32;;;2.83;;
26253;SDS011;53339;51.378;0.094;2023-11-22T05:33:25;13.35;;;3.10;;
26253;SDS011;53339;51.378;0.094;2023-11-22T05:35:52;9.65;;;4.35;;
26253;SDS011;53339;51.378;0.094;2023-11-22T05:38:20;6.80;;;3.10;;
26253;SDS011;53339;51.378;0.094;2023-11-22T05:40:48;9.07;;;3.75;;
26253;SDS011;53339;51.378;0.094;2023-11-22T05:43:16;7.35;;;3.83;;
26253;SDS011;53339;51.378;0.094;2023-11-22T05:45:44;8.07;;;4.07;;
26253;SDS011;53339;51.378;0.094;2023-11-22T05:48:16;9.82;;;4.35;;
26253;SDS011;53339;51.378;0.094;2023-11-22T05:50:45;7.57;;;4.07;;
26253;SDS011;53339;51.378;0.094;2023-11-22T05:53:13;8.90;;;4.25;;
26253;SDS011;53339;51.378;0.094;2023-11-22T05:55:48;8.70;;;4.07;;
26253;SDS011;53339;51.378;0.094;2023-11-22T05:58:16;10.73;;;4.57;;
26253;SDS011;53339;51.378;0.094;2023-11-22T06:00:44;10.55;;;5.43;;
26253;SDS011;53339;51.378;0.094;2023-11-22T06:03:13;11.85;;;5.22;;
26253;SDS011;53339;51.378;0.094;2023-11-22T06:05:41;9.07;;;6.05;;
26253;SDS011;53339;51.378;0.094;2023-11-22T06:08:09;10.43;;;6.07;;
26253;SDS011;53339;51.378;0.094;2023-11-22T06:10:37;10.23;;;3.92;;
26253;SDS011;53339;51.378;0.094;2023-11-22T06:13:08;8.45;;;5.85;;
26253;SDS011;53339;51.378;0.094;2023-11-22T06:15:37;11.05;;;4.00;;
26253;SDS011;53339;51.378;0.094;2023-11-22T06:18:04;9.90;;;4.00;;
26253;SDS011;53339;51.378;0.094;2023-11-22T06:20:35;5.35;;;3.90;;
26253;SDS011;53339;51.378;0.094;2023-11-22T06:23:03;7.57;;;3.03;;
26253;SDS011;53339;51.378;0.094;2023-11-22T06:25:31;8.00;;;3.83;;
26253;SDS011;53339;51.378;0.094;2023-11-22T06:27:58;14.32;;;4.03;;
26253;SDS011;53339;51.378;0.094;2023-11-22T06:30:28;7.88;;;3.92;;
26253;SDS011;53339;51.378;0.094;2023-11-22T06:32:57;7.15;;;3.72;;
26253;SDS011;53339;51.378;0.094;2023-11-22T06:35:25;9.73;;;5.53;;
26253;SDS011;53339;51.378;0.094;2023-11-22T06:37:54;8.07;;;4.90;;
26253;SDS011;53339;51.378;0.094;2023-11-22T06:40:21;6.07;;;3.25;;
26253;SDS011;53339;51.378;0.094;2023-11-22T06:42:49;11.52;;;4.28;;
26253;SDS011;53339;51.378;0.094;2023-11-22T06:45:17;10.68;;;4.25;;
26253;SDS011;53339;51.378;0.094;2023-11-22T06:47:46;11.95;;;5.85;;
26253;SDS011;53339;51.378;0.094;2023-11-22T06:50:14;7.60;;;4.03;;
26253;SDS011;53339;51.378;0.094;2023-11-22T06:52:43;9.13;;;4.15;;
26253;SDS011;53339;51.378;0.094;2023-11-22T06:55:10;9.73;;;4.18;;
26253;SDS011;53339;51.378;0.094;2023-11-22T06:57:38;11.60;;;4.40;;
26253;SDS011;53339;51.378;0.094;2023-11-22T07:00:06;8.63;;;3.95;;
26253;SDS011;53339;51.378;0.094;2023-11-22T07:02:37;7.78;;;4.10;;
26253;SDS011;53339;51.378;0.094;2023-11-22T07:05:05;9.48;;;3.63;;
26253;SDS011;53339;51.378;0.094;2023-11-22T07:07:37;11.50;;;5.50;;
26253;SDS011;53339;51.378;0.094;2023-11-22T07:10:05;10.73;;;5.22;;
26253;SDS011;53339;51.378;0.094;2023-11-22T07:12:33;8.70;;;4.55;;
26253;SDS011;53339;51.378;0.094;2023-11-22T07:15:02;11.32;;;5.15;;
26253;SDS011;53339;51.378;0.094;2023-11-22T07:20:00;8.48;;;5.22;;
26253;SDS011;53339;51.378;0.094;2023-11-22T07:22:29;9.02;;;4.00;;
26253;SDS011;53339;51.378;0.094;2023-11-22T07:24:57;10.07;;;4.20;;
26253;SDS011;53339;51.378;0.094;2023-11-22T07:27:32;10.18;;;4.50;;
26253;SDS011;53339;51.378;0.094;2023-11-22T07:30:00;10.90;;;4.35;;
26253;SDS011;53339;51.378;0.094;2023-11-22T07:32:30;10.10;;;4.05;;
26253;SDS011;53339;51.378;0.094;2023-11-22T07:34:58;7.22;;;4.07;;
26253;SDS011;53339;51.378;0.094;2023-11-22T07:37:30;13.60;;;4.13;;
26253;SDS011;53339;51.378;0.094;2023-11-22T07:39:58;12.13;;;5.25;;
26253;SDS011;53339;51.378;0.094;2023-11-22T07:42:26;9.07;;;4.90;;
26253;SDS011;53339;51.378;0.094;2023-11-22T07:44:54;8.45;;;4.47;;
26253;SDS011;53339;51.378;0.094;2023-11-22T07:47:23;10.48;;;4.25;;
26253;SDS011;53339;51.378;0.094;2023-11-22T07:49:51;16.02;;;5.85;;
26253;SDS011;53339;51.378;0.094;2023-11-22T07:52:19;11.82;;;5.70;;
26253;SDS011;53339;51.378;0.094;2023-11-22T07:54:47;9.93;;;4.93;;
26253;SDS011;53339;51.378;0.094;2023-11-22T07:57:14;9.82;;;5.38;;
26253;SDS011;53339;51.378;0.094;2023-11-22T07:59:44;10.75;;;5.03;;
26253;SDS011;53339;51.378;0.094;2023-11-22T08:04:46;10.88;;;4.57;;
26253;SDS011;53339;51.378;0.094;2023-11-22T08:07:18;8.07;;;4.50;;
26253;SDS011;53339;51.378;0.094;2023-11-22T08:09:50;10.45;;;5.03;;
26253;SDS011;53339;51.378;0.094;2023-11-22T08:12:21;12.02;;;8.95;;
26253;SDS011;53339;51.378;0.094;2023-11-22T08:14:50;9.27;;;4.82;;
26253;SDS011;53339;51.378;0.094;2023-11-22T08:17:22;7.97;;;4.43;;
26253;SDS011;53339;51.378;0.094;2023-11-22T08:19:50;13.02;;;4.53;;
26253;SDS011;53339;51.378;0.094;2023-11-22T08:22:18;10.55;;;4.95;;
26253;SDS011;53339;51.378;0.094;2023-11-22T08:24:46;14.65;;;5.60;;
26253;SDS011;53339;51.378;0.094;2023-11-22T08:27:14;16.25;;;5.97;;
26253;SDS011;53339;51.378;0.094;2023-11-22T08:29:43;11.07;;;6.13;;
26253;SDS011;53339;51.378;0.094;2023-11-22T08:32:13;14.88;;;5.93;;
26253;SDS011;53339;51.378;0.094;2023-11-22T08:34:41;9.60;;;5.22;;
26253;SDS011;53339;51.378;0.094;2023-11-22T08:37:10;11.30;;;5.75;;
26253;SDS011;53339;51.378;0.094;2023-11-22T08:39:38;11.60;;;6.50;;
26253;SDS011;53339;51.378;0.094;2023-11-22T08:42:06;9.68;;;5.18;;
26253;SDS011;53339;51.378;0.094;2023-11-22T08:44:36;9.90;;;5.32;;
26253;SDS011;53339;51.378;0.094;2023-11-22T08:47:07;11.27;;;5.68;;
26253;SDS011;53339;51.378;0.094;2023-11-22T08:49:35;12.80;;;6.38;;
26253;SDS011;53339;51.378;0.094;2023-11-22T08:52:03;11.73;;;5.70;;
26253;SDS011;53339;51.378;0.094;2023-11-22T08:54:34;10.73;;;4.57;;
26253;SDS011;53339;51.378;0.094;2023-11-22T08:57:02;10.20;;;4.00;;
26253;SDS011;53339;51.378;0.094;2023-11-22T08:59:30;13.98;;;6.18;;
26253;SDS011;53339;51.378;0.094;2023-11-22T09:01:59;13.45;;;5.22;;
26253;SDS011;53339;51.378;0.094;2023-11-22T09:04:27;11.48;;;5.40;;
26253;SDS011;53339;51.378;0.094;2023-11-22T09:06:56;10.65;;;6.07;;
26253;SDS011;53339;51.378;0.094;2023-11-22T09:09:24;23.13;;;5.60;;
26253;SDS011;53339;51.378;0.094;2023-11-22T09:11:58;15.13;;;6.00;;
26253;SDS011;53339;51.378;0.094;2023-11-22T09:14:26;9.50;;;4.68;;
26253;SDS011;53339;51.378;0.094;2023-11-22T09:16:55;14.00;;;7.72;;
26253;SDS011;53339;51.378;0.094;2023-11-22T09:19:23;11.45;;;5.38;;
26253;SDS011;53339;51.378;0.094;2023-11-22T09:21:52;10.15;;;5.10;;
26253;SDS011;53339;51.378;0.094;2023-11-22T09:24:19;12.32;;;5.05;;
26253;SDS011;53339;51.378;0.094;2023-11-22T09:26:47;13.23;;;6.55;;
26253;SDS011;53339;51.378;0.094;2023-11-22T09:29:14;8.63;;;4.15;;
26253;SDS011;53339;51.378;0.094;2023-11-22T09:31:42;7.32;;;3.97;;
26253;SDS011;53339;51.378;0.094;2023-11-22T09:34:10;11.65;;;2.97;;
26253;SDS011;53339;51.378;0.094;2023-11-22T09:36:38;6.72;;;3.20;;
26253;SDS011;53339;51.378;0.094;2023-11-22T09:39:06;8.90;;;4.30;;
26253;SDS011;53339;51.378;0.094;2023-11-22T09:41:36;9.13;;;3.40;;
26253;SDS011;53339;51.378;0.094;2023-11-22T09:44:04;13.20;;;4.45;;
26253;SDS011;53339;51.378;0.094;2023-11-22T09:46:32;12.45;;;3.10;;
26253;SDS011;53339;51.378;0.094;2023-11-22T09:49:02;12.35;;;3.25;;
26253;SDS011;53339;51.378;0.094;2023-11-22T09:51:35;8.85;;;3.28;;
26253;SDS011;53339;51.378;0.094;2023-11-22T09:54:09;8.32;;;3.10;;
26253;SDS011;53339;51.378;0.094;2023-11-22T09:56:41;5.55;;;2.20;;
26253;SDS011;53339;51.378;0.094;2023-11-22T09:59:18;20.73;;;2.97;;
26253;SDS011;53339;51.378;0.094;2023-11-22T10:01:49;3.22;;;1.80;;
26253;SDS011;53339;51.378;0.094;2023-11-22T10:04:21;4.55;;;2.03;;
26253;SDS011;53339;51.378;0.094;2023-11-22T10:06:52;5.10;;;2.30;;
26253;SDS011;53339;51.378;0.094;2023-11-22T10:09:20;5.80;;;2.50;;
26253;SDS011;53339;51.378;0.094;2023-11-22T10:11:51;4.00;;;2.00;;
26253;SDS011;53339;51.378;0.094;2023-11-22T10:14:24;4.60;;;2.95;;
26253;SDS011;53339;51.378;0.094;2023-11-22T10:17:00;7.45;;;2.63;;
26253;SDS011;53339;51.378;0.094;2023-11-22T10:19:28;5.47;;;1.77;;
26253;SDS011;53339;51.378;0.094;2023-11-22T10:22:03;3.55;;;2.33;;
26253;SDS011;53339;51.378;0.094;2023-11-22T10:24:34;3.92;;;2.03;;
26253;SDS011;53339;51.378;0.094;2023-11-22T10:27:03;4.93;;;2.47;;
26253;SDS011;53339;51.378;0.094;2023-11-22T10:29:31;4.95;;;2.63;;
26253;SDS011;53339;51.378;0.094;2023-11-22T10:32:03;1.75;;;1.58;;
26253;SDS011;53339;51.378;0.094;2023-11-22T10:34:32;4.25;;;1.98;;
26253;SDS011;53339;51.378;0.094;2023-11-22T10:37:01;2.67;;;1.50;;
26253;SDS011;53339;51.378;0.094;2023-11-22T10:39:31;2.55;;;1.55;;
26253;SDS011;53339;51.378;0.094;2023-11-22T10:41:59;3.47;;;1.65;;
26253;SDS011;53339;51.378;0.094;2023-11-22T10:44:28;7.00;;;2.45;;
26253;SDS011;53339;51.378;0.094;2023-11-22T10:46:59;3.42;;;1.80;;
26253;SDS011;53339;51.378;0.094;2023-11-22T10:49:27;9.05;;;1.88;;
26253;SDS011;53339;51.378;0.094;2023-11-22T10:51:56;4.53;;;1.25;;
26253;SDS011;53339;51.378;0.094;2023-11-22T10:54:24;1.83;;;1.38;;
26253;SDS011;53339;51.378;0.094;2023-11-22T10:56:54;2.88;;;1.88;;
26253;SDS011;53339;51.378;0.094;2023-11-22T10:59:26;7.03;;;2.15;;
26253;SDS011;53339;51.378;0.094;2023-11-22T11:01:55;5.97;;;2.08;;
26253;SDS011;53339;51.378;0.094;2023-11-22T11:04:39;2.00;;;1.33;;
26253;SDS011;53339;51.378;0.094;2023-11-22T11:07:14;3.42;;;1.13;;
26253;SDS011;53339;51.378;0.094;2023-11-22T11:09:45;5.57;;;1.92;;
26253;SDS011;53339;51.378;0.094;2023-11-22T11:12:17;4.32;;;2.03;;
26253;SDS011;53339;51.378;0.094;2023-11-22T11:14:45;3.72;;;2.25;;
26253;SDS011;53339;51.378;0.094;2023-11-22T11:17:14;2.80;;;1.92;;
26253;SDS011;53339;51.378;0.094;2023-11-22T11:19:42;2.28;;;1.88;;
26253;SDS011;53339;51.378;0.094;2023-11-22T11:22:10;3.47;;;1.83;;
26253;SDS011;53339;51.378;0.094;2023-11-22T11:24:38;4.88;;;2.25;;
26253;SDS011;53339;51.378;0.094;2023-11-22T11:27:07;5.70;;;2.45;;
26253;SDS011;53339;51.378;0.094;2023-11-22T11:29:36;2.40;;;2.20;;
26253;SDS011;53339;51.378;0.094;2023-11-22T11:32:11;6.00;;;1.75;;
26253;SDS011;53339;51.378;0.094;2023-11-22T11:34:58;4.60;;;1.63;;
26253;SDS011;53339;51.378;0.094;2023-11-22T11:37:31;2.97;;;1.45;;
26253;SDS011;53339;51.378;0.094;2023-11-22T11:39:59;4.60;;;2.20;;
26253;SDS011;53339;51.378;0.094;2023-11-22T11:42:27;2.75;;;2.47;;
26253;SDS011;53339;51.378;0.094;2023-11-22T11:45:04;3.63;;;1.92;;
26253;SDS011;53339;51.378;0.094;2023-11-22T11:47:34;3.92;;;2.05;;
26253;SDS011;53339;51.378;0.094;2023-11-22T11:50:02;3.25;;;1.90;;
26253;SDS011;53339;51.378;0.094;2023-11-22T11:52:31;3.50;;;1.83;;
26253;SDS011;53339;51.378;0.094;2023-11-22T11:54:59;5.00;;;1.55;;
26253;SDS011;53339;51.378;0.094;2023-11-22T11:57:30;3.45;;;1.75;;
26253;SDS011;53339;51.378;0.094;2023-11-22T11:59:59;2.78;;;1.83;;
26253;SDS011;53339;51.378;0.094;2023-11-22T12:02:37;2.15;;;1.45;;
26253;SDS011;53339;51.378;0.094;2023-11-22T12:05:05;2.40;;;1.42;;
26253;SDS011;53339;51.378;0.094;2023-11-22T12:07:36;8.45;;;2.33;;
26253;SDS011;53339;51.378;0.094;2023-11-22T12:10:05;3.17;;;1.42;;
26253;SDS011;53339;51.378;0.094;2023-11-22T12:12:42;5.43;;;2.40;;
26253;SDS011;53339;51.378;0.094;2023-11-22T12:15:11;3.10;;;2.45;;
26253;SDS011;53339;51.378;0.094;2023-11-22T12:17:40;3.53;;;1.65;;
26253;SDS011;53339;51.378;0.094;2023-11-22T12:20:14;3.60;;;2.13;;
26253;SDS011;53339;51.378;0.094;2023-11-22T12:22:45;4.45;;;2.42;;
26253;SDS011;53339;51.378;0.094;2023-11-22T12:25:14;4.32;;;2.53;;
26253;SDS011;53339;51.378;0.094;2023-11-22T12:27:42;1.98;;;1.63;;
26253;SDS011;53339;51.378;0.094;2023-11-22T12:30:31;1.73;;;1.42;;
26253;SDS011;53339;51.378;0.094;2023-11-22T12:33:07;3.75;;;1.38;;
26253;SDS011;53339;51.378;0.094;2023-11-22T12:35:45;3.50;;;2.45;;
26253;SDS011;53339;51.378;0.094;2023-11-22T12:38:14;3.03;;;1.70;;
26253;SDS011;53339;51.378;0.094;2023-11-22T12:40:45;4.32;;;2.92;;
26253;SDS011;53339;51.378;0.094;2023-11-22T12:43:19;4.60;;;1.90;;
26253;SDS011;53339;51.378;0.094;2023-11-22T12:45:47;5.72;;;2.38;;
26253;SDS011;53339;51.378;0.094;2023-11-22T12:48:29;1.95;;;1.30;;
26253;SDS011;53339;51.378;0.094;2023-11-22T12:51:01;4.63;;;2.00;;
26253;SDS011;53339;51.378;0.094;2023-11-22T12:53:31;4.15;;;1.83;;
26253;SDS011;53339;51.378;0.094;2023-11-22T12:56:01;3.25;;;1.17;;
26253;SDS011;53339;51.378;0.094;2023-11-22T12:58:32;3.92;;;2.08;;
26253;SDS011;53339;51.378;0.094;2023-11-22T13:01:00;6.05;;;2.75;;
26253;SDS011;53339;51.378;0.094;2023-11-22T13:03:30;6.32;;;3.03;;
26253;SDS011;53339;51.378;0.094;2023-11-22T13:05:59;4.13;;;1.92;;
26253;SDS011;53339;51.378;0.094;2023-11-22T13:08:26;2.40;;;1.90;;
26253;SDS011;53339;51.378;0.094;2023-11-22T13:10:57;3.60;;;1.90;;
26253;SDS011;53339;51.378;0.094;2023-11-22T13:13:26;4.60;;;1.70;;
26253;SDS011;53339;51.378;0.094;2023-11-22T13:15:55;3.78;;;1.83;;
26253;SDS011;53339;51.378;0.094;2023-11-22T13:18:22;3.28;;;2.13;;
26253;SDS011;53339;51.378;0.094;2023-11-22T13:20:52;6.13;;;2.40;;
26253;SDS011;53339;51.378;0.094;2023-11-22T13:23:20;3.30;;;1.98;;
26253;SDS011;53339;51.378;0.094;2023-11-22T13:25:48;4.97;;;1.88;;
26253;SDS011;53339;51.378;0.094;2023-11-22T13:28:19;4.63;;;2.05;;
26253;SDS011;53339;51.378;0.094;2023-11-22T13:30:46;4.13;;;2.72;;
26253;SDS011;53339;51.378;0.094;2023-11-22T13:33:16;3.50;;;2.03;;
26253;SDS011;53339;51.378;0.094;2023-11-22T13:35:44;3.15;;;1.77;;
26253;SDS011;53339;51.378;0.094;2023-11-22T13:38:12;2.75;;;1.83;;
26253;SDS011;53339;51.378;0.094;2023-11-22T13:40:40;8.15;;;3.30;;
26253;SDS011;53339;51.378;0.094;2023-11-22T13:43:07;4.07;;;2.20;;
26253;SDS011;53339;51.378;0.094;2023-11-22T13:45:35;4.13;;;1.67;;
26253;SDS011;53339;51.378;0.094;2023-11-22T13:48:07;8.52;;;2.03;;
26253;SDS011;53339;51.378;0.094;2023-11-22T13:50:36;2.63;;;1.92;;
26253;SDS011;53339;51.378;0.094;2023-11-22T13:53:04;2.97;;;1.50;;
26253;SDS011;53339;51.378;0.094;2023-11-22T13:55:32;7.15;;;2.35;;
26253;SDS011;53339;51.378;0.094;2023-11-22T13:58:00;6.20;;;2.50;;
26253;SDS011;53339;51.378;0.094;2023-11-22T14:00:29;3.88;;;1.77;;
26253;SDS011;53339;51.378;0.094;2023-11-22T14:03:02;3.40;;;2.00;;
26253;SDS011;53339;51.378;0.094;2023-11-22T14:05:35;3.47;;;1.27;;
26253;SDS011;53339;51.378;0.094;2023-11-22T14:08:04;3.03;;;1.67;;
26253;SDS011;53339;51.378;0.094;2023-11-22T14:10:35;3.95;;;2.40;;
26253;SDS011;53339;51.378;0.094;2023-11-22T14:13:03;3.58;;;2.60;;
26253;SDS011;53339;51.378;0.094;2023-11-22T14:15:32;4.25;;;2.22;;
26253;SDS011;53339;51.378;0.094;2023-11-22T14:18:01;3.63;;;2.20;;
26253;SDS011;53339;51.378;0.094;2023-11-22T14:20:30;4.28;;;1.60;;
26253;SDS011;53339;51.378;0.094;2023-11-22T14:22:59;5.47;;;1.67;;
26253;SDS011;53339;51.378;0.094;2023-11-22T14:25:27;6.55;;;2.03;;
26253;SDS011;53339;51.378;0.094;2023-11-22T14:27:56;3.50;;;1.60;;
26253;SDS011;53339;51.378;0.094;2023-11-22T14:30:25;4.10;;;2.53;;
26253;SDS011;53339;51.378;0.094;2023-11-22T14:32:56;8.02;;;2.45;;
26253;SDS011;53339;51.378;0.094;2023-11-22T14:35:26;6.80;;;2.08;;
26253;SDS011;53339;51.378;0.094;2023-11-22T14:37:55;5.65;;;2.28;;
26253;SDS011;53339;51.378;0.094;2023-11-22T14:40:25;4.07;;;2.10;;
26253;SDS011;53339;51.378;0.094;2023-11-22T14:42:54;4.40;;;3.50;;
26253;SDS011;53339;51.378;0.094;2023-11-22T14:45:23;6.05;;;2.42;;
26253;SDS011;53339;51.378;0.094;2023-11-22T14:47:54;3.92;;;2.60;;
26253;SDS011;53339;51.378;0.094;2023-11-22T14:50:23;3.90;;;2.05;;
26253;SDS011;53339;51.378;0.094;2023-11-22T14:52:55;9.98;;;2.38;;
26253;SDS011;53339;51.378;0.094;2023-11-22T14:55:23;6.78;;;2.13;;
26253;SDS011;53339;51.378;0.094;2023-11-22T14:57:53;8.27;;;2.65;;
26253;SDS011;53339;51.378;0.094;2023-11-22T15:00:24;6.10;;;2.80;;
26253;SDS011;53339;51.378;0.094;2023-11-22T15:02:52;6.07;;;1.88;;
26253;SDS011;53339;51.378;0.094;2023-11-22T15:05:23;3.60;;;2.33;;